createdAt,value
2018-06-12T00:00:17.533Z,96.70
2018-06-12T00:02:46.613Z,96.50
2018-06-12T00:05:15.601Z,96.30
2018-06-12T00:07:44.592Z,96.50
2018-06-12T00:10:13.724Z,96.50
2018-06-12T00:12:42.741Z,96.70
2018-06-12T00:15:11.769Z,96.60
2018-06-12T00:17:41.809Z,96.60
2018-06-12T00:20:10.806Z,96.70
2018-06-12T00:22:39.777Z,96.70
2018-06-12T00:25:08.835Z,96.80
2018-06-12T00:27:37.823Z,96.80
2018-06-12T00:30:06.869Z,96.30
2018-06-12T00:32:35.857Z,96.40
2018-06-12T00:35:04.844Z,95.90
2018-06-12T00:37:33.904Z,96.30
2018-06-12T00:40:02.899Z,95.40
2018-06-12T00:42:31.924Z,96.00
2018-06-12T00:45:00.895Z,95.90
2018-06-12T00:47:29.876Z,95.50
2018-06-12T00:49:58.896Z,95.60
2018-06-12T00:52:28.004Z,95.60
2018-06-12T00:54:57.025Z,95.00
2018-06-12T00:57:26.069Z,94.90
2018-06-12T00:59:55.061Z,94.80
2018-06-12T01:02:24.124Z,94.80
2018-06-12T01:04:53.160Z,94.40
2018-06-12T01:07:22.332Z,94.40
2018-06-12T01:09:51.385Z,94.30
2018-06-12T01:12:20.502Z,94.30
2018-06-12T01:14:49.498Z,94.10
2018-06-12T01:17:18.956Z,94.00
2018-06-12T01:19:47.968Z,93.80
2018-06-12T01:22:16.974Z,93.50
2018-06-12T01:24:45.997Z,93.40
2018-06-12T01:27:15.005Z,93.30
2018-06-12T01:29:44.069Z,93.40
2018-06-12T01:32:13.079Z,93.80
2018-06-12T01:34:42.097Z,93.80
2018-06-12T01:37:11.117Z,94.20
2018-06-12T01:39:40.092Z,94.80
2018-06-12T01:42:09.113Z,95.20
2018-06-12T01:44:38.173Z,95.30
2018-06-12T01:47:07.169Z,95.50
2018-06-12T01:49:36.192Z,95.40
2018-06-12T01:52:05.261Z,94.90
2018-06-12T01:54:34.244Z,94.20
2018-06-12T01:57:03.288Z,94.10
2018-06-12T01:59:32.590Z,93.60
2018-06-12T02:02:01.865Z,93.60
2018-06-12T02:04:30.885Z,93.50
2018-06-12T02:06:59.980Z,93.10
2018-06-12T02:09:28.996Z,93.00
2018-06-12T02:11:58.022Z,92.90
2018-06-12T02:14:27.033Z,93.20
2018-06-12T02:16:56.044Z,93.20
2018-06-12T02:19:25.028Z,93.40
2018-06-12T02:21:54.053Z,93.10
2018-06-12T02:24:23.097Z,93.20
2018-06-12T02:26:52.249Z,93.50
2018-06-12T02:29:21.269Z,93.80
2018-06-12T02:31:50.350Z,94.00
2018-06-12T02:34:19.405Z,94.10
2018-06-12T02:36:48.444Z,93.90
2018-06-12T02:39:17.437Z,94.40
2018-06-12T02:41:46.452Z,94.60
2018-06-12T02:44:15.432Z,94.90
2018-06-12T02:46:44.423Z,95.00
2018-06-12T02:49:13.449Z,95.20
2018-06-12T02:51:42.482Z,95.40
2018-06-12T02:54:11.506Z,95.70
2018-06-12T02:56:40.499Z,95.40
2018-06-12T02:59:09.605Z,95.10
2018-06-12T03:01:38.609Z,95.40
2018-06-12T03:04:07.616Z,95.40
2018-06-12T03:06:36.660Z,95.30
2018-06-12T03:09:08.276Z,94.70
2018-06-12T03:11:37.305Z,95.20
2018-06-12T03:14:06.553Z,95.30
2018-06-12T03:16:35.572Z,95.40
2018-06-12T03:19:04.557Z,94.20
2018-06-12T03:21:33.586Z,94.60
2018-06-12T03:24:02.626Z,94.40
2018-06-12T03:26:31.657Z,93.70
2018-06-12T03:29:00.628Z,94.00
2018-06-12T03:31:29.653Z,94.10
2018-06-12T03:33:58.714Z,93.90
2018-06-12T03:36:27.729Z,93.90
2018-06-12T03:38:56.755Z,93.70
2018-06-12T03:41:25.773Z,93.00
2018-06-12T03:43:54.760Z,92.70
2018-06-12T03:46:23.833Z,92.30
2018-06-12T03:51:21.789Z,92.60
2018-06-12T03:53:51.435Z,92.40
2018-06-12T03:56:20.760Z,92.70
2018-06-12T03:58:50.009Z,92.40
2018-06-12T04:01:19.333Z,92.20
2018-06-12T04:03:48.389Z,91.90
2018-06-12T04:06:17.392Z,92.20
2018-06-12T04:08:46.428Z,92.30
2018-06-12T04:11:15.422Z,91.80
2018-06-12T04:13:44.556Z,92.40
2018-06-12T04:16:14.093Z,92.70
2018-06-12T04:18:43.714Z,92.50
2018-06-12T04:21:13.465Z,92.60
2018-06-12T04:23:42.765Z,92.80
2018-06-12T04:26:12.061Z,92.90
2018-06-12T04:28:41.121Z,92.40
2018-06-12T04:33:38.948Z,93.20
2018-06-12T04:36:08.237Z,92.90
2018-06-12T04:38:37.305Z,92.50
2018-06-12T04:41:06.328Z,92.80
2018-06-12T04:43:35.365Z,92.80
2018-06-12T04:46:04.353Z,92.40
2018-06-12T04:48:33.378Z,92.30
2018-06-12T04:51:02.353Z,92.00
2018-06-12T04:53:31.342Z,92.00
2018-06-12T04:56:00.380Z,91.60
2018-06-12T04:58:29.398Z,91.70
2018-06-12T05:00:58.441Z,91.00
2018-06-12T05:03:27.470Z,91.90
2018-06-12T05:05:56.516Z,92.00
2018-06-12T05:08:25.593Z,91.70
2018-06-12T05:10:54.741Z,91.70
2018-06-12T05:13:23.780Z,91.40
2018-06-12T05:18:21.541Z,89.70
2018-06-12T05:20:50.673Z,89.30
2018-06-12T05:23:20.106Z,90.40
2018-06-12T05:25:49.175Z,90.40
2018-06-12T05:30:46.796Z,90.80
2018-06-12T05:33:15.825Z,90.60
2018-06-12T05:35:44.854Z,90.30
2018-06-12T05:38:13.849Z,90.70
2018-06-12T05:40:42.885Z,90.40
2018-06-12T05:43:11.909Z,89.30
2018-06-12T05:45:40.937Z,89.20
2018-06-12T05:48:09.921Z,89.10
2018-06-12T05:50:38.947Z,88.40
2018-06-12T05:53:07.998Z,89.40
2018-06-12T05:55:37.058Z,88.70
2018-06-12T05:58:06.174Z,87.10
2018-06-12T06:00:35.191Z,87.40
2018-06-12T06:03:04.191Z,87.20
2018-06-12T06:05:33.529Z,86.60
2018-06-12T06:08:02.509Z,85.50
2018-06-12T06:10:31.543Z,85.00
2018-06-12T06:13:00.543Z,85.90
2018-06-12T06:15:29.577Z,86.20
2018-06-12T06:17:58.865Z,87.00
2018-06-12T06:20:28.161Z,85.80
2018-06-12T06:22:57.186Z,83.80
2018-06-12T06:25:26.199Z,83.40
2018-06-12T06:27:55.308Z,82.00
2018-06-12T06:30:24.458Z,82.00
2018-06-12T06:32:53.807Z,82.40
2018-06-12T06:35:22.974Z,82.80
2018-06-12T06:37:52.217Z,84.10
2018-06-12T06:40:21.629Z,82.90
2018-06-12T06:42:50.953Z,80.70
2018-06-12T06:45:20.046Z,80.80
2018-06-12T06:47:49.032Z,81.80
2018-06-12T06:52:46.765Z,82.60
2018-06-12T06:55:15.749Z,82.10
2018-06-12T06:57:44.774Z,80.60
2018-06-12T07:00:13.751Z,80.30
2018-06-12T07:02:42.737Z,79.70
2018-06-12T07:07:40.647Z,80.30
2018-06-12T07:10:09.784Z,80.10
2018-06-12T07:12:38.880Z,78.80
2018-06-12T07:15:07.943Z,77.10
2018-06-12T07:17:36.964Z,79.60
2018-06-12T07:20:05.981Z,79.30
2018-06-12T07:22:34.969Z,78.60
2018-06-12T07:25:03.992Z,79.20
2018-06-12T07:27:32.981Z,77.00
2018-06-12T07:30:02.059Z,76.30
2018-06-12T07:32:30.991Z,77.80
2018-06-12T07:35:00.010Z,77.90
2018-06-12T07:37:29.104Z,74.20
2018-06-12T07:39:58.056Z,75.80
2018-06-12T07:42:27.143Z,75.60
2018-06-12T07:44:56.632Z,75.10
2018-06-12T07:47:25.989Z,73.70
2018-06-12T07:49:55.105Z,72.90
2018-06-12T07:52:24.845Z,74.30
2018-06-12T07:54:54.341Z,74.10
2018-06-12T07:57:24.046Z,74.00
2018-06-12T07:59:53.393Z,71.40
2018-06-12T08:02:23.442Z,73.50
2018-06-12T08:04:53.283Z,71.50
2018-06-12T08:07:23.343Z,71.90
2018-06-12T08:09:53.293Z,73.00
2018-06-12T08:12:22.844Z,72.80
2018-06-12T08:14:53.000Z,71.60
2018-06-12T08:17:23.144Z,72.10
2018-06-12T08:19:52.520Z,71.60
2018-06-12T08:22:22.628Z,72.10
2018-06-12T08:24:52.707Z,72.20
2018-06-12T08:27:22.413Z,71.20
2018-06-12T08:29:52.728Z,71.40
2018-06-12T08:32:22.629Z,69.30
2018-06-12T08:34:52.216Z,67.10
2018-06-12T08:37:21.907Z,69.10
2018-06-12T08:39:51.582Z,70.00
2018-06-12T08:42:21.953Z,72.00
2018-06-12T08:44:51.529Z,70.10
2018-06-12T08:47:21.188Z,69.70
2018-06-12T08:49:50.571Z,71.90
2018-06-12T08:52:20.821Z,68.30
2018-06-12T08:54:50.708Z,68.80
2018-06-12T08:57:20.157Z,70.00
2018-06-12T08:59:49.429Z,71.30
2018-06-12T09:02:18.617Z,69.70
2018-06-12T09:04:47.994Z,67.90
2018-06-12T09:07:17.000Z,68.10
2018-06-12T09:09:46.021Z,68.10
2018-06-12T09:12:15.038Z,69.60
2018-06-12T09:14:44.060Z,71.40
2018-06-12T09:17:13.043Z,69.40
2018-06-12T09:19:42.022Z,66.20
2018-06-12T09:22:11.305Z,66.20
2018-06-12T09:24:40.656Z,67.00
2018-06-12T09:27:09.876Z,67.70
2018-06-12T09:29:39.249Z,69.00
2018-06-12T09:32:08.280Z,68.80
2018-06-12T09:34:37.255Z,67.00
2018-06-12T09:37:06.272Z,66.40
2018-06-12T09:39:35.256Z,67.30
2018-06-12T09:42:04.290Z,64.90
2018-06-12T09:44:33.292Z,66.60
2018-06-12T09:47:02.270Z,67.40
2018-06-12T09:49:31.313Z,68.20
2018-06-12T09:52:00.301Z,63.80
2018-06-12T09:54:29.299Z,63.90
2018-06-12T09:56:58.505Z,64.10
2018-06-12T09:59:28.116Z,63.90
2018-06-12T10:01:57.298Z,62.80
2018-06-12T10:06:55.909Z,63.20
2018-06-12T10:09:25.073Z,62.50
2018-06-12T10:11:54.342Z,62.10
2018-06-12T10:14:23.872Z,62.90
2018-06-12T10:16:53.352Z,61.20
2018-06-12T10:19:23.032Z,62.90
2018-06-12T10:21:52.548Z,63.70
2018-06-12T10:24:22.290Z,64.00
2018-06-12T10:26:52.344Z,65.80
2018-06-12T10:29:21.693Z,64.00
2018-06-12T10:31:51.497Z,62.50
2018-06-12T10:34:20.948Z,62.40
2018-06-12T10:36:50.641Z,63.00
2018-06-12T10:39:19.708Z,63.10
2018-06-12T10:41:48.758Z,63.00
2018-06-12T10:44:17.828Z,61.00
2018-06-12T10:46:46.853Z,62.40
2018-06-12T10:49:15.828Z,62.30
2018-06-12T10:51:44.849Z,60.90
2018-06-12T10:54:14.093Z,60.90
2018-06-12T10:56:43.545Z,62.10
2018-06-12T10:59:12.595Z,61.00
2018-06-12T11:01:42.192Z,60.10
2018-06-12T11:04:11.309Z,62.70
2018-06-12T11:06:40.549Z,60.20
2018-06-12T11:09:09.665Z,62.40
2018-06-12T11:11:38.644Z,60.00
2018-06-12T11:14:07.665Z,62.40
2018-06-12T11:16:36.644Z,61.50
2018-06-12T11:19:05.753Z,60.00
2018-06-12T11:21:35.020Z,60.90
2018-06-12T11:24:04.061Z,59.40
2018-06-12T11:26:33.040Z,59.70
2018-06-12T11:29:02.061Z,59.20
2018-06-12T11:31:31.049Z,60.10
2018-06-12T11:34:00.061Z,60.80
2018-06-12T11:36:29.085Z,61.00
2018-06-12T11:38:58.247Z,60.70
2018-06-12T11:41:27.397Z,59.40
2018-06-12T11:43:56.490Z,57.70
2018-06-12T11:46:25.569Z,58.00
2018-06-12T11:48:55.173Z,59.10
2018-06-12T11:51:24.705Z,58.10
2018-06-12T11:53:54.316Z,56.60
2018-06-12T11:56:24.584Z,57.70
2018-06-12T11:58:54.281Z,56.80
2018-06-12T12:01:23.477Z,58.60
2018-06-12T12:03:52.974Z,56.20
2018-06-12T12:06:22.699Z,57.10
2018-06-12T12:08:52.560Z,56.90
2018-06-12T12:11:22.493Z,59.40
2018-06-12T12:13:51.653Z,57.90
2018-06-12T12:16:20.973Z,58.20
2018-06-12T12:18:50.162Z,58.80
2018-06-12T12:21:19.408Z,57.30
2018-06-12T12:23:48.605Z,57.50
2018-06-12T12:26:17.585Z,56.40
2018-06-12T12:28:46.578Z,56.20
2018-06-12T12:31:15.824Z,56.30
2018-06-12T12:33:44.848Z,58.40
2018-06-12T12:36:14.013Z,57.30
2018-06-12T12:38:43.322Z,56.30
2018-06-12T12:41:12.588Z,56.90
2018-06-12T12:43:42.042Z,58.20
2018-06-12T12:46:11.396Z,56.80
2018-06-12T12:48:41.245Z,60.00
2018-06-12T12:51:10.600Z,58.40
2018-06-12T12:53:40.346Z,55.30
2018-06-12T12:56:09.502Z,57.20
2018-06-12T12:58:38.605Z,56.60
2018-06-12T13:01:07.709Z,57.90
2018-06-12T13:03:36.697Z,56.40
2018-06-12T13:06:06.196Z,53.80
2018-06-12T13:08:35.220Z,54.40
2018-06-12T13:11:04.241Z,54.10
2018-06-12T13:13:33.461Z,54.20
2018-06-12T13:16:02.485Z,53.60
2018-06-12T13:18:31.474Z,53.40
2018-06-12T13:21:00.469Z,52.70
2018-06-12T13:23:29.483Z,53.00
2018-06-12T13:25:58.469Z,54.90
2018-06-12T13:28:27.473Z,51.70
2018-06-12T13:30:56.504Z,52.70
2018-06-12T13:33:25.813Z,52.00
2018-06-12T13:35:55.075Z,52.40
2018-06-12T13:38:24.498Z,53.30
2018-06-12T13:40:53.792Z,53.70
2018-06-12T13:43:23.241Z,53.90
2018-06-12T13:45:52.754Z,52.90
2018-06-12T13:48:22.180Z,52.80
2018-06-12T13:50:52.196Z,53.00
2018-06-12T13:53:21.777Z,52.20
2018-06-12T13:55:51.300Z,51.80
2018-06-12T13:58:20.837Z,52.20
2018-06-12T14:00:50.472Z,51.50
2018-06-12T14:03:21.228Z,52.50
2018-06-12T14:05:51.153Z,51.80
2018-06-12T14:08:20.753Z,52.00
2018-06-12T14:10:49.916Z,54.10
2018-06-12T14:13:19.061Z,52.70
2018-06-12T14:15:48.684Z,52.50
2018-06-12T14:18:17.795Z,52.50
2018-06-12T14:20:46.856Z,52.20
2018-06-12T14:23:15.884Z,51.60
2018-06-12T14:25:44.880Z,50.90
2018-06-12T14:28:13.934Z,50.80
2018-06-12T14:30:42.906Z,49.40
2018-06-12T14:33:12.121Z,49.90
2018-06-12T14:35:41.210Z,50.50
2018-06-12T14:38:10.532Z,50.80
2018-06-12T14:40:39.741Z,50.00
2018-06-12T14:43:09.114Z,50.90
2018-06-12T14:45:38.129Z,50.30
2018-06-12T14:48:07.128Z,50.80
2018-06-12T14:50:36.154Z,51.10
2018-06-12T14:53:05.402Z,51.90
2018-06-12T14:55:34.425Z,52.30
2018-06-12T14:58:03.484Z,50.30
2018-06-12T15:03:01.213Z,48.60
2018-06-12T15:05:30.329Z,48.00
2018-06-12T15:07:59.404Z,47.40
2018-06-12T15:10:28.385Z,46.00
2018-06-12T15:12:57.469Z,40.70
2018-06-12T15:15:26.627Z,40.00
2018-06-12T15:17:56.301Z,40.00
2018-06-12T15:20:25.568Z,38.70
2018-06-12T15:22:55.153Z,39.20
2018-06-12T15:25:24.730Z,39.30
2018-06-12T15:27:54.420Z,37.40
2018-06-12T15:30:23.750Z,40.10
2018-06-12T15:32:53.789Z,42.00
2018-06-12T15:35:23.451Z,46.10
2018-06-12T15:37:53.000Z,47.70
2018-06-12T15:40:22.284Z,49.00
2018-06-12T15:42:51.681Z,47.00
2018-06-12T15:45:21.596Z,43.70
2018-06-12T15:47:57.595Z,44.60
2018-06-12T15:50:27.055Z,49.70
2018-06-12T15:52:56.025Z,51.10
2018-06-12T15:55:25.047Z,46.70
2018-06-12T15:57:54.525Z,46.20
2018-06-12T16:00:23.880Z,46.90
2018-06-12T16:02:53.344Z,43.40
2018-06-12T16:05:22.733Z,45.00
2018-06-12T16:07:52.310Z,45.40
2018-06-12T16:10:21.846Z,47.50
2018-06-12T16:12:51.152Z,48.90
2018-06-12T16:15:20.535Z,45.50
2018-06-12T16:17:49.924Z,39.70
2018-06-12T16:20:19.171Z,37.60
2018-06-12T16:22:49.128Z,36.40
2018-06-12T16:25:18.773Z,36.30
2018-06-12T16:27:48.421Z,37.20
2018-06-12T16:30:17.634Z,37.60
2018-06-12T16:32:46.785Z,41.10
2018-06-12T16:35:15.781Z,44.10
2018-06-12T16:37:44.781Z,46.40
2018-06-12T16:40:13.808Z,47.40
2018-06-12T16:42:42.879Z,48.70
2018-06-12T16:45:11.873Z,48.40
2018-06-12T16:47:41.209Z,47.50
2018-06-12T16:50:10.684Z,45.40
2018-06-12T16:52:40.216Z,44.60
2018-06-12T16:55:09.695Z,45.70
2018-06-12T16:57:38.807Z,47.40
2018-06-12T17:00:08.064Z,48.60
2018-06-12T17:02:37.617Z,49.80
2018-06-12T17:05:07.064Z,52.00
2018-06-12T17:07:36.597Z,53.40
2018-06-12T17:10:05.660Z,53.50
2018-06-12T17:12:35.628Z,55.00
2018-06-12T17:15:05.153Z,54.70
2018-06-12T17:17:34.181Z,55.60
2018-06-12T17:20:03.257Z,55.70
2018-06-12T17:22:32.241Z,55.60
2018-06-12T17:25:01.233Z,55.30
2018-06-12T17:27:30.281Z,55.30
2018-06-12T17:29:59.312Z,54.60
2018-06-12T17:32:28.355Z,55.70
2018-06-12T17:34:57.336Z,55.70
2018-06-12T17:37:26.344Z,55.50
2018-06-12T17:39:55.506Z,55.70
2018-06-12T17:42:24.760Z,56.60
2018-06-12T17:44:53.817Z,55.70
2018-06-12T17:47:23.390Z,55.80
2018-06-12T17:49:52.672Z,54.40
2018-06-12T17:52:23.297Z,54.30
2018-06-12T17:54:53.458Z,52.60
2018-06-12T17:57:23.430Z,52.30
2018-06-12T17:59:52.666Z,52.00
2018-06-12T18:02:22.929Z,52.90
2018-06-12T18:04:53.205Z,53.90
2018-06-12T18:09:53.303Z,59.30
2018-06-12T18:12:23.648Z,62.70
2018-06-12T18:14:53.088Z,65.10
2018-06-12T18:17:22.136Z,66.60
2018-06-12T18:19:56.697Z,66.90
2018-06-12T18:22:25.822Z,68.10
2018-06-12T18:24:54.916Z,68.40
2018-06-12T18:27:23.928Z,69.90
2018-06-12T18:29:53.230Z,70.50
2018-06-12T18:32:22.241Z,70.40
2018-06-12T18:34:51.863Z,70.60
2018-06-12T18:37:20.932Z,71.30
2018-06-12T18:39:49.969Z,71.20
2018-06-12T18:42:19.334Z,71.80
2018-06-12T18:44:49.460Z,72.80
2018-06-12T18:47:18.565Z,72.80
2018-06-12T18:49:47.597Z,73.10
2018-06-12T18:52:16.690Z,73.40
2018-06-12T18:54:46.000Z,73.80
2018-06-12T18:57:15.393Z,74.80
2018-06-12T18:59:44.508Z,74.20
2018-06-12T19:02:13.561Z,74.30
2018-06-12T19:04:42.660Z,75.10
2018-06-12T19:07:11.720Z,75.50
2018-06-12T19:09:40.967Z,75.80
2018-06-12T19:12:10.100Z,76.30
2018-06-12T19:14:39.234Z,76.60
2018-06-12T19:17:08.266Z,77.20
2018-06-12T19:19:37.329Z,78.30
2018-06-12T19:22:06.453Z,78.40
2018-06-12T19:24:35.452Z,78.10
2018-06-12T19:27:04.504Z,78.40
2018-06-12T19:29:33.493Z,78.70
2018-06-12T19:32:02.510Z,78.90
2018-06-12T19:34:31.549Z,78.70
2018-06-12T19:37:00.626Z,79.50
2018-06-12T19:39:30.117Z,80.70
2018-06-12T19:42:05.994Z,80.90
2018-06-12T19:44:35.029Z,80.70
2018-06-12T19:47:04.079Z,81.40
2018-06-12T19:49:33.154Z,82.30
2018-06-12T19:52:02.297Z,83.00
2018-06-12T19:54:31.447Z,82.60
2018-06-12T19:57:00.524Z,84.00
2018-06-12T19:59:29.659Z,85.20
2018-06-12T20:01:58.653Z,85.10
2018-06-12T20:04:27.628Z,85.60
2018-06-12T20:06:56.712Z,85.40
2018-06-12T20:09:25.683Z,85.60
2018-06-12T20:11:54.680Z,85.80
2018-06-12T20:14:23.712Z,85.60
2018-06-12T20:16:52.918Z,85.80
2018-06-12T20:19:22.137Z,85.90
2018-06-12T20:21:51.192Z,86.80
2018-06-12T20:24:20.343Z,87.70
2018-06-12T20:26:49.802Z,88.20
2018-06-12T20:29:19.053Z,88.80
2018-06-12T20:34:22.361Z,90.20
2018-06-12T20:36:51.557Z,90.20
2018-06-12T20:39:20.705Z,90.50
2018-06-12T20:41:49.870Z,90.70
2018-06-12T20:44:19.890Z,90.80
2018-06-12T20:46:48.925Z,91.00
2018-06-12T20:51:46.673Z,90.80
2018-06-12T20:54:15.708Z,90.90
2018-06-12T20:56:44.693Z,90.90
2018-06-12T20:59:13.672Z,90.70
2018-06-12T21:04:18.237Z,91.10
2018-06-12T21:06:47.362Z,91.70
2018-06-12T21:09:16.352Z,91.50
2018-06-12T21:11:45.331Z,91.40
2018-06-12T21:14:14.392Z,91.30
2018-06-12T21:16:43.382Z,91.50
2018-06-12T21:19:12.405Z,91.50
2018-06-12T21:21:41.469Z,91.70
2018-06-12T21:24:10.488Z,91.60
2018-06-12T21:26:39.557Z,91.90
2018-06-12T21:29:08.671Z,92.10
2018-06-12T21:31:37.720Z,92.30
2018-06-12T21:34:06.740Z,92.20
2018-06-12T21:36:35.746Z,91.70
2018-06-12T21:39:07.086Z,91.60
2018-06-12T21:41:36.297Z,92.20
2018-06-12T21:44:05.332Z,92.40
2018-06-12T21:46:34.570Z,92.90
2018-06-12T21:49:03.557Z,92.50
2018-06-12T21:51:32.585Z,92.10
2018-06-12T21:54:01.686Z,92.10
2018-06-12T21:56:30.977Z,92.30
2018-06-12T21:58:59.948Z,92.90
2018-06-12T22:01:28.936Z,92.70
2018-06-12T22:03:57.968Z,92.40
2018-06-12T22:06:26.972Z,92.70
2018-06-12T22:08:55.945Z,93.10
2018-06-12T22:11:25.234Z,93.00
2018-06-12T22:13:54.253Z,92.80
2018-06-12T22:16:23.781Z,93.00
2018-06-12T22:18:53.720Z,92.80
2018-06-12T22:21:22.753Z,92.60
2018-06-12T22:23:51.865Z,92.70
2018-06-12T22:26:20.996Z,93.00
2018-06-12T22:31:18.886Z,93.60
2018-06-12T22:33:47.976Z,93.70
2018-06-12T22:36:17.018Z,93.80
2018-06-12T22:38:46.068Z,94.20
2018-06-12T22:41:15.101Z,94.40
2018-06-12T22:43:44.136Z,94.40
2018-06-12T22:46:13.144Z,94.70
2018-06-12T22:48:42.347Z,95.00
2018-06-12T22:51:11.348Z,94.80
2018-06-12T22:53:40.352Z,94.10
2018-06-12T22:56:09.408Z,94.20
2018-06-12T22:58:38.422Z,94.60
2018-06-12T23:01:07.502Z,94.60
2018-06-12T23:03:36.517Z,94.80
2018-06-12T23:06:05.531Z,94.80
2018-06-12T23:08:34.596Z,95.20
2018-06-12T23:11:04.001Z,95.40
2018-06-12T23:13:33.084Z,95.50
2018-06-12T23:16:02.126Z,95.70
2018-06-12T23:18:31.396Z,95.70
2018-06-12T23:22:06.108Z,95.10
2018-06-12T23:24:35.190Z,95.00
2018-06-12T23:27:04.210Z,94.80
2018-06-12T23:29:33.332Z,94.50
2018-06-12T23:32:02.389Z,94.30
2018-06-12T23:34:31.397Z,94.70
2018-06-12T23:37:00.535Z,94.90
2018-06-12T23:39:29.593Z,94.90
2018-06-12T23:41:58.614Z,94.80
2018-06-12T23:44:27.865Z,94.90
2018-06-12T23:46:56.875Z,94.80
2018-06-12T23:49:25.872Z,95.10
2018-06-12T23:51:55.113Z,95.00
2018-06-12T23:54:24.253Z,95.10
2018-06-12T23:56:53.296Z,95.10
2018-06-12T23:59:22.407Z,95.30
